createdAt,value
2023-10-21T00:01:44.194Z,11.30
2023-10-21T00:06:51.126Z,11.40
2023-10-21T00:11:57.876Z,11.30
2023-10-21T00:17:05.154Z,11.20
2023-10-21T00:22:12.548Z,11.20
2023-10-21T00:27:20.082Z,11.00
2023-10-21T00:32:26.613Z,11.00
2023-10-21T00:37:33.573Z,11.00
2023-10-21T00:42:40.807Z,10.80
2023-10-21T00:47:47.758Z,10.80
2023-10-21T00:52:55.938Z,10.70
2023-10-21T00:58:02.544Z,10.60
2023-10-21T01:03:09.714Z,10.80
2023-10-21T01:08:16.158Z,10.80
2023-10-21T01:13:24.325Z,10.70
2023-10-21T01:18:37.328Z,10.70
2023-10-21T01:23:44.268Z,10.70
2023-10-21T01:28:51.077Z,10.80
2023-10-21T01:33:57.609Z,10.90
2023-10-21T01:39:06.480Z,10.80
2023-10-21T01:44:13.141Z,10.50
2023-10-21T01:49:20.473Z,10.60
2023-10-21T01:54:27.963Z,10.80
2023-10-21T01:59:34.704Z,10.80
2023-10-21T02:04:40.496Z,10.80
2023-10-21T02:09:47.396Z,10.80
2023-10-21T02:14:54.785Z,10.80
2023-10-21T02:20:01.041Z,10.90
2023-10-21T02:25:13.663Z,10.90
2023-10-21T02:30:20.661Z,10.90
2023-10-21T02:35:27.310Z,10.80
2023-10-21T02:40:34.137Z,10.80
2023-10-21T02:45:40.910Z,10.70
2023-10-21T02:50:47.439Z,10.60
2023-10-21T02:55:53.994Z,10.60
2023-10-21T03:01:02.420Z,10.60
2023-10-21T03:06:10.052Z,10.60
2023-10-21T03:11:17.075Z,10.40
2023-10-21T03:16:23.376Z,10.50
2023-10-21T03:21:30.271Z,10.60
2023-10-21T03:26:37.119Z,10.50
2023-10-21T03:31:44.208Z,10.60
2023-10-21T03:36:51.736Z,10.60
2023-10-21T03:41:58.766Z,10.70
2023-10-21T03:47:05.755Z,10.70
2023-10-21T03:52:12.150Z,10.70
2023-10-21T03:57:17.858Z,10.70
2023-10-21T04:02:25.095Z,10.50
2023-10-21T04:07:31.385Z,10.20
2023-10-21T04:12:38.198Z,10.20
2023-10-21T04:17:46.827Z,10.20
2023-10-21T04:22:55.309Z,10.40
2023-10-21T04:28:02.642Z,10.30
2023-10-21T04:33:09.686Z,10.00
2023-10-21T04:38:16.282Z,10.00
2023-10-21T04:43:21.906Z,10.10
2023-10-21T04:48:29.307Z,10.00
2023-10-21T04:53:36.125Z,9.90
2023-10-21T04:58:42.810Z,9.80
2023-10-21T05:03:50.384Z,9.80
2023-10-21T05:08:57.707Z,9.70
2023-10-21T05:14:04.091Z,9.80
2023-10-21T05:19:10.685Z,10.00
2023-10-21T05:24:17.471Z,9.70
2023-10-21T05:29:24.206Z,9.70
2023-10-21T05:34:30.997Z,9.70
2023-10-21T05:39:38.230Z,9.60
2023-10-21T05:47:07.016Z,9.60
2023-10-21T05:49:53.466Z,9.50
2023-10-21T05:54:59.106Z,9.20
2023-10-21T06:00:08.886Z,9.20
2023-10-21T06:05:15.807Z,9.30
2023-10-21T06:10:22.613Z,9.20
2023-10-21T06:15:29.812Z,9.30
2023-10-21T06:20:37.647Z,9.10
2023-10-21T06:25:45.635Z,9.10
2023-10-21T06:30:52.181Z,9.50
2023-10-21T06:35:59.703Z,9.40
2023-10-21T06:41:14.282Z,9.60
2023-10-21T06:46:15.162Z,9.90
2023-10-21T06:51:21.793Z,10.10
2023-10-21T06:56:30.176Z,10.20
2023-10-21T07:01:38.603Z,10.60
2023-10-21T07:06:46.903Z,11.10
2023-10-21T07:11:53.797Z,11.40
2023-10-21T07:17:02.071Z,11.70
2023-10-21T07:22:09.086Z,12.20
2023-10-21T07:27:15.495Z,12.70
2023-10-21T07:32:23.710Z,13.30
2023-10-21T07:37:31.461Z,13.80
2023-10-21T07:42:38.033Z,14.20
2023-10-21T07:47:44.060Z,14.60
2023-10-21T07:52:50.956Z,14.50
2023-10-21T07:57:58.216Z,15.00
2023-10-21T08:03:06.627Z,15.80
2023-10-21T08:08:14.554Z,16.10
2023-10-21T08:13:22.800Z,16.70
2023-10-21T08:18:30.362Z,17.20
2023-10-21T08:23:37.055Z,17.60
2023-10-21T08:28:43.847Z,18.20
2023-10-21T08:33:51.315Z,18.50
2023-10-21T08:38:58.956Z,18.80
2023-10-21T08:44:06.932Z,19.10
2023-10-21T08:49:15.751Z,19.30
2023-10-21T08:54:26.582Z,19.30
2023-10-21T08:59:33.808Z,19.10
2023-10-21T09:04:40.462Z,19.10
2023-10-21T09:09:47.443Z,19.30
2023-10-21T09:15:04.705Z,19.40
2023-10-21T09:20:14.911Z,19.60
2023-10-21T09:25:25.572Z,19.70
2023-10-21T09:30:33.704Z,19.70
2023-10-21T09:35:40.333Z,19.90
2023-10-21T09:40:47.765Z,20.50
2023-10-21T09:45:58.223Z,21.50
2023-10-21T09:51:10.804Z,21.00
2023-10-21T09:56:18.945Z,20.20
2023-10-21T10:01:25.735Z,20.90
2023-10-21T10:06:35.660Z,20.60
2023-10-21T10:11:43.599Z,21.00
2023-10-21T10:16:50.257Z,21.50
2023-10-21T10:21:57.347Z,21.70
2023-10-21T10:27:09.799Z,21.10
2023-10-21T10:32:19.246Z,21.70
2023-10-21T10:37:38.470Z,21.50
2023-10-21T10:42:47.756Z,20.50
2023-10-21T10:48:05.912Z,18.80
2023-10-21T10:53:23.574Z,18.20
2023-10-21T10:58:30.941Z,18.40
2023-10-21T11:03:38.366Z,19.10
2023-10-21T11:08:46.094Z,18.70
2023-10-21T11:13:53.337Z,19.40
2023-10-21T11:19:02.027Z,19.60
2023-10-21T11:24:12.002Z,19.00
2023-10-21T11:29:20.255Z,18.40
2023-10-21T11:34:29.338Z,17.60
2023-10-21T11:39:36.018Z,17.30
2023-10-21T11:44:43.567Z,17.00
2023-10-21T11:49:51.206Z,16.60
2023-10-21T11:55:13.087Z,17.30
2023-10-21T12:00:37.579Z,18.30
2023-10-21T12:05:50.294Z,18.70
2023-10-21T12:11:14.762Z,18.30
2023-10-21T12:16:23.189Z,18.20
2023-10-21T12:21:37.184Z,18.50
2023-10-21T12:26:57.473Z,18.60
2023-10-21T12:32:21.710Z,19.20
2023-10-21T12:37:31.393Z,19.10
2023-10-21T12:42:39.907Z,19.50
2023-10-21T12:47:48.725Z,19.40
2023-10-21T12:52:55.252Z,19.50
2023-10-21T12:58:06.362Z,19.90
2023-10-21T13:03:14.871Z,20.10
2023-10-21T13:08:23.268Z,19.90
2023-10-21T13:13:32.619Z,20.20
2023-10-21T13:18:40.024Z,20.60
2023-10-21T13:23:47.606Z,20.40
2023-10-21T13:28:56.214Z,20.40
2023-10-21T13:34:05.208Z,20.70
2023-10-21T13:39:20.243Z,20.70
2023-10-21T13:44:26.984Z,20.80
2023-10-21T13:49:44.393Z,20.30
2023-10-21T13:54:51.345Z,20.20
2023-10-21T13:59:58.205Z,20.10
2023-10-21T14:05:08.118Z,19.70
2023-10-21T14:10:15.705Z,19.40
2023-10-21T14:15:25.133Z,19.00
2023-10-21T14:20:32.071Z,18.80
2023-10-21T14:25:43.679Z,18.90
2023-10-21T14:30:59.894Z,18.90
2023-10-21T14:36:09.153Z,18.70
2023-10-21T14:41:17.974Z,18.70
2023-10-21T14:48:46.597Z,18.40
2023-10-21T14:53:53.243Z,18.30
2023-10-21T14:58:59.611Z,18.40
2023-10-21T15:04:08.624Z,18.20
2023-10-21T15:09:17.172Z,17.90
2023-10-21T15:14:34.318Z,17.80
2023-10-21T15:19:32.316Z,17.50
2023-10-21T15:24:40.394Z,17.50
2023-10-21T15:29:47.544Z,17.00
2023-10-21T15:34:54.803Z,17.00
2023-10-21T15:40:02.368Z,16.40
2023-10-21T15:45:10.123Z,16.20
2023-10-21T15:50:17.828Z,15.70
2023-10-21T15:55:27.438Z,15.60
2023-10-21T16:00:34.194Z,15.50
2023-10-21T16:05:40.698Z,15.70
2023-10-21T16:10:47.500Z,15.00
2023-10-21T16:16:00.061Z,14.80
2023-10-21T16:21:07.812Z,15.00
2023-10-21T16:26:15.041Z,14.40
2023-10-21T16:31:21.967Z,14.60
2023-10-21T16:36:27.824Z,14.50
2023-10-21T16:41:34.401Z,14.60
2023-10-21T16:46:42.516Z,14.80
2023-10-21T16:51:49.693Z,14.60
2023-10-21T16:56:56.468Z,14.40
2023-10-21T17:02:03.703Z,14.40
2023-10-21T17:07:09.511Z,14.30
2023-10-21T17:12:17.939Z,14.10
2023-10-21T17:17:25.188Z,13.80
2023-10-21T17:22:32.237Z,14.20
2023-10-21T17:27:38.404Z,14.20
2023-10-21T17:32:46.615Z,14.30
2023-10-21T17:37:53.460Z,14.10
2023-10-21T17:43:00.171Z,13.80
2023-10-21T17:48:07.106Z,13.80
2023-10-21T17:53:13.625Z,13.90
2023-10-21T17:58:20.194Z,13.50
2023-10-21T18:03:27.204Z,13.60
2023-10-21T18:08:34.340Z,13.70
2023-10-21T18:13:41.132Z,13.70
2023-10-21T18:18:49.475Z,13.50
2023-10-21T18:23:56.214Z,13.40
2023-10-21T18:29:03.880Z,13.50
2023-10-21T18:34:11.021Z,13.60
2023-10-21T18:39:19.130Z,13.60
2023-10-21T18:44:25.783Z,13.50
2023-10-21T18:49:33.037Z,13.70
2023-10-21T18:54:40.134Z,13.30
2023-10-21T18:59:48.211Z,13.30
2023-10-21T19:04:56.304Z,13.40
2023-10-21T19:10:03.386Z,13.50
2023-10-21T19:15:10.679Z,13.10
2023-10-21T19:20:17.744Z,13.00
2023-10-21T19:25:25.199Z,13.00
2023-10-21T19:30:31.918Z,13.20
2023-10-21T19:35:38.930Z,13.20
2023-10-21T19:40:46.222Z,13.00
2023-10-21T19:45:52.794Z,13.00
2023-10-21T19:50:59.477Z,12.90
2023-10-21T19:56:10.441Z,13.10
2023-10-21T20:01:17.498Z,13.00
2023-10-21T20:06:24.628Z,13.20
2023-10-21T20:11:31.320Z,13.10
2023-10-21T20:16:38.373Z,12.60
2023-10-21T20:21:45.218Z,12.40
2023-10-21T20:26:53.014Z,12.60
2023-10-21T20:31:59.437Z,12.80
2023-10-21T20:37:08.163Z,12.80
2023-10-21T20:42:17.398Z,12.80
2023-10-21T20:47:24.231Z,12.80
2023-10-21T20:52:33.726Z,12.70
2023-10-21T20:57:41.224Z,12.70
2023-10-21T21:02:48.037Z,12.50
2023-10-21T21:07:54.728Z,12.40
2023-10-21T21:13:02.004Z,12.60
2023-10-21T21:18:10.718Z,12.60
2023-10-21T21:23:17.361Z,12.60
2023-10-21T21:28:24.137Z,12.70
2023-10-21T21:33:30.178Z,12.60
2023-10-21T21:38:37.257Z,12.50
2023-10-21T21:43:45.904Z,12.20
2023-10-21T21:48:52.809Z,12.20
2023-10-21T21:54:01.921Z,12.00
2023-10-21T21:59:09.355Z,12.10
2023-10-21T22:04:19.668Z,12.00
2023-10-21T22:09:29.845Z,12.10
2023-10-21T22:14:37.525Z,11.60
2023-10-21T22:19:45.348Z,11.00
2023-10-21T22:24:52.774Z,11.30
2023-10-21T22:30:02.129Z,11.40
2023-10-21T22:35:09.722Z,11.50
2023-10-21T22:40:17.887Z,11.20
2023-10-21T22:45:24.714Z,11.40
2023-10-21T22:50:32.153Z,11.50
2023-10-21T22:55:40.769Z,11.50
2023-10-21T23:00:48.670Z,11.30
2023-10-21T23:05:58.417Z,11.40
2023-10-21T23:11:05.042Z,11.40
2023-10-21T23:16:11.040Z,11.30
2023-10-21T23:21:17.692Z,11.30
2023-10-21T23:26:24.260Z,11.40
2023-10-21T23:31:31.325Z,11.60
2023-10-21T23:36:38.572Z,11.60
2023-10-21T23:41:47.901Z,11.60
2023-10-21T23:46:54.731Z,11.60
2023-10-21T23:52:01.750Z,11.50
2023-10-21T23:57:08.491Z,11.40
